Centerton, AR (72719)

12:55 AM CST on February 11, 2016 (GMT -0600)
Northwest Centerton | | Change Station
CLOSE
Current Station
Personal Weather Station
Location: Centerton, AR
Elevation: 1358 ft
Nearby Weather Stations

Elev 1358 ft 36.37 °N, 94.30 °W | Updated 4 minutes ago

Clear
Clear
37.6 °F
Feels Like 38 °F
N
0.0
Wind Variable Wind from ESE

Today
High -- | Low -- °F
--% Chance of Precip.
Yesterday
High -- | Low -- °F
Precip. -- in
Pressure 29.95 in
Visibility 10.0 miles
Clouds Clear
Windchill 38 °F
Dew Point 29 °F
Humidity 71%
Rainfall 0.00 in
Snow Depth Not available.
7:09 AM 5:53 PM
Waxing Crescent, 10% visible
METAR KXNA 110653Z AUTO 00000KT 10SM CLR 02/M03 A2994 RMK AO2 SLP140 T00171028
Pressure 29.95 in
Visibility 10.0 miles
Clouds Clear
Windchill 38 °F
Dew Point 29 °F
Humidity 71%
Rainfall 0.00 in
Snow Depth Not available.
7:09 AM 5:53 PM
Waxing Crescent, 10% visible
METAR KXNA 110653Z AUTO 00000KT 10SM CLR 02/M03 A2994 RMK AO2 SLP140 T00171028

10-Day Weather Forecast

Almanac

Astronomy

Feb. 11, 2016 Rise Set
Actual Time
Civil Twilight
Nautical Twilight
Astronomical Twilight
Moon
Length of Visible Light
Length of Day
Tomorrow will be .
, % of the Moon is Illuminated

Today's Extremes

State Highs State Lows

Community

WunderPhotos

Upload Photos

1,892,028 photos uploaded!

WunderBlog® & News

Nearby

Air Quality

  Air Quality AQ Index Pollutant
Not available.

Snow Depth

Station Depth Elevation

Earthquake Activity

City Distance Mag. Time & Date
Minimum magnitude displayed is 2.5.

Coastal Water Temperatures

Place Temperature

Stations

Nearby Weather Stations

Station Location Temp. Windchill Dew Point Humidity Wind Precip. Elev Updated Type
                   

Watches & Warnings

There are currently no watches in effect.